sensor_id;sensor_type;location;lat;lon;timestamp;P1;durP1;ratioP1;P2;durP2;ratioP2
20861;SDS011;10591;52.532;13.348;2023-05-07T00:01:52;17.90;;;14.97;;
20861;SDS011;10591;52.532;13.348;2023-05-07T00:04:26;16.40;;;14.70;;
20861;SDS011;10591;52.532;13.348;2023-05-07T00:06:59;18.17;;;15.27;;
20861;SDS011;10591;52.532;13.348;2023-05-07T00:09:32;17.93;;;15.20;;
20861;SDS011;10591;52.532;13.348;2023-05-07T00:12:03;18.07;;;15.25;;
20861;SDS011;10591;52.532;13.348;2023-05-07T00:14:37;17.67;;;15.13;;
20861;SDS011;10591;52.532;13.348;2023-05-07T00:17:11;17.70;;;15.90;;
20861;SDS011;10591;52.532;13.348;2023-05-07T00:19:46;18.00;;;15.05;;
20861;SDS011;10591;52.532;13.348;2023-05-07T00:22:27;15.60;;;14.00;;
20861;SDS011;10591;52.532;13.348;2023-05-07T00:25:03;17.77;;;13.97;;
20861;SDS011;10591;52.532;13.348;2023-05-07T00:27:36;16.27;;;14.47;;
20861;SDS011;10591;52.532;13.348;2023-05-07T00:30:08;15.30;;;13.35;;
20861;SDS011;10591;52.532;13.348;2023-05-07T00:32:46;16.10;;;14.43;;
20861;SDS011;10591;52.532;13.348;2023-05-07T00:35:18;15.53;;;13.83;;
20861;SDS011;10591;52.532;13.348;2023-05-07T00:37:51;16.05;;;13.22;;
20861;SDS011;10591;52.532;13.348;2023-05-07T00:40:23;16.77;;;13.72;;
20861;SDS011;10591;52.532;13.348;2023-05-07T00:42:54;14.98;;;13.45;;
20861;SDS011;10591;52.532;13.348;2023-05-07T00:45:29;15.27;;;13.50;;
20861;SDS011;10591;52.532;13.348;2023-05-07T00:48:01;14.80;;;12.93;;
20861;SDS011;10591;52.532;13.348;2023-05-07T00:50:36;15.60;;;13.33;;
20861;SDS011;10591;52.532;13.348;2023-05-07T00:53:08;14.93;;;13.17;;
20861;SDS011;10591;52.532;13.348;2023-05-07T00:55:43;15.30;;;13.37;;
20861;SDS011;10591;52.532;13.348;2023-05-07T00:58:17;17.27;;;13.33;;
20861;SDS011;10591;52.532;13.348;2023-05-07T01:00:52;15.40;;;13.67;;
20861;SDS011;10591;52.532;13.348;2023-05-07T01:03:23;14.47;;;12.97;;
20861;SDS011;10591;52.532;13.348;2023-05-07T01:05:57;15.80;;;13.90;;
20861;SDS011;10591;52.532;13.348;2023-05-07T01:08:48;18.13;;;14.57;;
20861;SDS011;10591;52.532;13.348;2023-05-07T01:11:10;15.40;;;13.75;;
20861;SDS011;10591;52.532;13.348;2023-05-07T01:13:41;15.93;;;13.77;;
20861;SDS011;10591;52.532;13.348;2023-05-07T01:16:13;15.10;;;12.85;;
20861;SDS011;10591;52.532;13.348;2023-05-07T01:18:46;16.02;;;14.35;;
20861;SDS011;10591;52.532;13.348;2023-05-07T01:21:21;16.37;;;12.90;;
20861;SDS011;10591;52.532;13.348;2023-05-07T01:23:56;14.27;;;12.77;;
20861;SDS011;10591;52.532;13.348;2023-05-07T01:26:29;15.77;;;13.63;;
20861;SDS011;10591;52.532;13.348;2023-05-07T01:29:03;15.47;;;13.87;;
20861;SDS011;10591;52.532;13.348;2023-05-07T01:31:39;15.23;;;13.63;;
20861;SDS011;10591;52.532;13.348;2023-05-07T01:34:18;15.80;;;13.10;;
20861;SDS011;10591;52.532;13.348;2023-05-07T01:36:56;16.80;;;14.03;;
20861;SDS011;10591;52.532;13.348;2023-05-07T01:39:29;16.10;;;13.97;;
20861;SDS011;10591;52.532;13.348;2023-05-07T01:42:01;16.15;;;13.00;;
20861;SDS011;10591;52.532;13.348;2023-05-07T01:44:32;16.30;;;13.95;;
20861;SDS011;10591;52.532;13.348;2023-05-07T01:47:05;16.77;;;13.40;;
20861;SDS011;10591;52.532;13.348;2023-05-07T01:49:36;14.77;;;12.70;;
20861;SDS011;10591;52.532;13.348;2023-05-07T01:52:13;16.53;;;13.10;;
20861;SDS011;10591;52.532;13.348;2023-05-07T01:54:46;15.07;;;13.47;;
20861;SDS011;10591;52.532;13.348;2023-05-07T01:57:17;14.20;;;12.80;;
20861;SDS011;10591;52.532;13.348;2023-05-07T01:59:49;15.27;;;13.20;;
20861;SDS011;10591;52.532;13.348;2023-05-07T02:02:20;14.90;;;12.35;;
20861;SDS011;10591;52.532;13.348;2023-05-07T02:04:55;15.18;;;13.58;;
20861;SDS011;10591;52.532;13.348;2023-05-07T02:07:46;16.35;;;13.70;;
20861;SDS011;10591;52.532;13.348;2023-05-07T02:10:04;15.28;;;13.55;;
20861;SDS011;10591;52.532;13.348;2023-05-07T02:12:36;15.60;;;13.53;;
20861;SDS011;10591;52.532;13.348;2023-05-07T02:15:09;15.07;;;13.40;;
20861;SDS011;10591;52.532;13.348;2023-05-07T02:20:37;15.47;;;12.90;;
20861;SDS011;10591;52.532;13.348;2023-05-07T02:23:16;15.57;;;13.97;;
20861;SDS011;10591;52.532;13.348;2023-05-07T02:25:47;15.55;;;13.70;;
20861;SDS011;10591;52.532;13.348;2023-05-07T02:28:22;16.73;;;13.83;;
20861;SDS011;10591;52.532;13.348;2023-05-07T02:30:53;15.73;;;13.43;;
20861;SDS011;10591;52.532;13.348;2023-05-07T02:33:27;14.68;;;13.08;;
20861;SDS011;10591;52.532;13.348;2023-05-07T02:36:08;14.87;;;13.10;;
20861;SDS011;10591;52.532;13.348;2023-05-07T02:38:44;17.30;;;13.78;;
20861;SDS011;10591;52.532;13.348;2023-05-07T02:41:19;14.70;;;13.20;;
20861;SDS011;10591;52.532;13.348;2023-05-07T02:43:58;15.43;;;12.73;;
20861;SDS011;10591;52.532;13.348;2023-05-07T02:46:28;14.87;;;13.20;;
20861;SDS011;10591;52.532;13.348;2023-05-07T02:49:06;15.53;;;13.85;;
20861;SDS011;10591;52.532;13.348;2023-05-07T02:51:41;14.13;;;12.57;;
20861;SDS011;10591;52.532;13.348;2023-05-07T02:54:13;16.70;;;12.90;;
20861;SDS011;10591;52.532;13.348;2023-05-07T02:56:46;15.00;;;12.83;;
20861;SDS011;10591;52.532;13.348;2023-05-07T02:59:24;14.93;;;13.37;;
20861;SDS011;10591;52.532;13.348;2023-05-07T03:01:58;15.10;;;12.97;;
20861;SDS011;10591;52.532;13.348;2023-05-07T03:04:34;14.33;;;12.80;;
20861;SDS011;10591;52.532;13.348;2023-05-07T03:07:11;14.75;;;12.50;;
20861;SDS011;10591;52.532;13.348;2023-05-07T03:09:44;16.03;;;13.33;;
20861;SDS011;10591;52.532;13.348;2023-05-07T03:12:18;14.37;;;12.87;;
20861;SDS011;10591;52.532;13.348;2023-05-07T03:14:52;14.07;;;12.50;;
20861;SDS011;10591;52.532;13.348;2023-05-07T03:17:35;14.10;;;12.60;;
20861;SDS011;10591;52.532;13.348;2023-05-07T03:20:05;12.80;;;11.50;;
20861;SDS011;10591;52.532;13.348;2023-05-07T03:22:41;13.27;;;11.90;;
20861;SDS011;10591;52.532;13.348;2023-05-07T03:25:13;13.77;;;12.30;;
20861;SDS011;10591;52.532;13.348;2023-05-07T03:27:49;13.07;;;11.67;;
20861;SDS011;10591;52.532;13.348;2023-05-07T03:30:24;13.20;;;11.63;;
20861;SDS011;10591;52.532;13.348;2023-05-07T03:32:58;12.80;;;11.47;;
20861;SDS011;10591;52.532;13.348;2023-05-07T03:35:29;13.70;;;12.07;;
20861;SDS011;10591;52.532;13.348;2023-05-07T03:38:03;13.83;;;11.97;;
20861;SDS011;10591;52.532;13.348;2023-05-07T03:40:40;12.73;;;10.57;;
20861;SDS011;10591;52.532;13.348;2023-05-07T03:43:09;12.57;;;11.23;;
20861;SDS011;10591;52.532;13.348;2023-05-07T03:45:40;13.20;;;11.80;;
20861;SDS011;10591;52.532;13.348;2023-05-07T03:48:15;13.47;;;12.13;;
20861;SDS011;10591;52.532;13.348;2023-05-07T03:50:53;14.40;;;11.63;;
20861;SDS011;10591;52.532;13.348;2023-05-07T03:53:37;13.40;;;11.80;;
20861;SDS011;10591;52.532;13.348;2023-05-07T03:56:16;13.22;;;11.85;;
20861;SDS011;10591;52.532;13.348;2023-05-07T03:58:47;14.27;;;11.90;;
20861;SDS011;10591;52.532;13.348;2023-05-07T04:01:21;14.28;;;12.88;;
20861;SDS011;10591;52.532;13.348;2023-05-07T04:03:53;13.10;;;11.80;;
20861;SDS011;10591;52.532;13.348;2023-05-07T04:06:26;14.80;;;11.83;;
20861;SDS011;10591;52.532;13.348;2023-05-07T04:09:00;13.20;;;11.80;;
20861;SDS011;10591;52.532;13.348;2023-05-07T04:11:36;13.22;;;11.53;;
20861;SDS011;10591;52.532;13.348;2023-05-07T04:14:08;13.00;;;11.60;;
20861;SDS011;10591;52.532;13.348;2023-05-07T04:16:40;12.83;;;11.50;;
20861;SDS011;10591;52.532;13.348;2023-05-07T04:19:21;12.47;;;11.20;;
20861;SDS011;10591;52.532;13.348;2023-05-07T04:21:59;12.80;;;11.50;;
20861;SDS011;10591;52.532;13.348;2023-05-07T04:24:33;13.40;;;10.93;;
20861;SDS011;10591;52.532;13.348;2023-05-07T04:27:04;13.20;;;10.67;;
20861;SDS011;10591;52.532;13.348;2023-05-07T04:29:38;12.40;;;11.13;;
20861;SDS011;10591;52.532;13.348;2023-05-07T04:32:11;12.93;;;11.47;;
20861;SDS011;10591;52.532;13.348;2023-05-07T04:34:46;13.60;;;11.90;;
20861;SDS011;10591;52.532;13.348;2023-05-07T04:37:18;13.73;;;12.20;;
20861;SDS011;10591;52.532;13.348;2023-05-07T04:39:51;12.85;;;11.35;;
20861;SDS011;10591;52.532;13.348;2023-05-07T04:42:25;12.93;;;11.00;;
20861;SDS011;10591;52.532;13.348;2023-05-07T04:44:56;12.13;;;10.93;;
20861;SDS011;10591;52.532;13.348;2023-05-07T04:47:28;12.80;;;11.03;;
20861;SDS011;10591;52.532;13.348;2023-05-07T04:50:01;12.33;;;11.00;;
20861;SDS011;10591;52.532;13.348;2023-05-07T04:52:34;11.83;;;10.60;;
20861;SDS011;10591;52.532;13.348;2023-05-07T04:55:09;10.98;;;9.80;;
20861;SDS011;10591;52.532;13.348;2023-05-07T04:57:41;10.85;;;9.63;;
20861;SDS011;10591;52.532;13.348;2023-05-07T05:00:16;12.35;;;10.30;;
20861;SDS011;10591;52.532;13.348;2023-05-07T05:02:48;11.60;;;10.13;;
20861;SDS011;10591;52.532;13.348;2023-05-07T05:05:21;12.33;;;10.33;;
20861;SDS011;10591;52.532;13.348;2023-05-07T05:07:55;11.57;;;10.37;;
20861;SDS011;10591;52.532;13.348;2023-05-07T05:10:27;12.00;;;9.53;;
20861;SDS011;10591;52.532;13.348;2023-05-07T05:13:04;10.23;;;9.23;;
20861;SDS011;10591;52.532;13.348;2023-05-07T05:15:38;12.77;;;9.00;;
20861;SDS011;10591;52.532;13.348;2023-05-07T05:18:11;11.05;;;8.63;;
20861;SDS011;10591;52.532;13.348;2023-05-07T05:20:42;9.83;;;8.70;;
20861;SDS011;10591;52.532;13.348;2023-05-07T05:23:14;9.43;;;8.50;;
20861;SDS011;10591;52.532;13.348;2023-05-07T05:25:48;9.33;;;8.43;;
20861;SDS011;10591;52.532;13.348;2023-05-07T05:28:21;11.95;;;9.78;;
20861;SDS011;10591;52.532;13.348;2023-05-07T05:31:01;10.10;;;9.10;;
20861;SDS011;10591;52.532;13.348;2023-05-07T05:33:35;9.93;;;8.88;;
20861;SDS011;10591;52.532;13.348;2023-05-07T05:36:15;11.03;;;9.10;;
20861;SDS011;10591;52.532;13.348;2023-05-07T05:38:48;11.73;;;9.23;;
20861;SDS011;10591;52.532;13.348;2023-05-07T05:41:19;11.57;;;8.83;;
20861;SDS011;10591;52.532;13.348;2023-05-07T05:43:56;9.87;;;8.83;;
20861;SDS011;10591;52.532;13.348;2023-05-07T05:46:27;11.67;;;9.13;;
20861;SDS011;10591;52.532;13.348;2023-05-07T05:49:04;10.38;;;8.98;;
20861;SDS011;10591;52.532;13.348;2023-05-07T05:51:36;10.73;;;9.43;;
20861;SDS011;10591;52.532;13.348;2023-05-07T05:54:13;10.60;;;9.50;;
20861;SDS011;10591;52.532;13.348;2023-05-07T05:56:48;10.77;;;9.27;;
20861;SDS011;10591;52.532;13.348;2023-05-07T05:59:21;9.87;;;8.53;;
20861;SDS011;10591;52.532;13.348;2023-05-07T06:01:53;10.50;;;9.33;;
20861;SDS011;10591;52.532;13.348;2023-05-07T06:04:33;9.18;;;8.13;;
20861;SDS011;10591;52.532;13.348;2023-05-07T06:07:07;9.93;;;8.88;;
20861;SDS011;10591;52.532;13.348;2023-05-07T06:09:41;11.22;;;8.83;;
20861;SDS011;10591;52.532;13.348;2023-05-07T06:12:16;9.48;;;8.53;;
20861;SDS011;10591;52.532;13.348;2023-05-07T06:14:47;9.73;;;8.70;;
20861;SDS011;10591;52.532;13.348;2023-05-07T06:17:21;11.00;;;9.10;;
20861;SDS011;10591;52.532;13.348;2023-05-07T06:19:55;9.18;;;8.25;;
20861;SDS011;10591;52.532;13.348;2023-05-07T06:22:28;10.28;;;8.08;;
20861;SDS011;10591;52.532;13.348;2023-05-07T06:25:01;10.18;;;8.28;;
20861;SDS011;10591;52.532;13.348;2023-05-07T06:27:38;10.40;;;8.65;;
20861;SDS011;10591;52.532;13.348;2023-05-07T06:30:09;10.32;;;8.85;;
20861;SDS011;10591;52.532;13.348;2023-05-07T06:32:45;11.90;;;9.28;;
20861;SDS011;10591;52.532;13.348;2023-05-07T06:35:16;8.88;;;7.78;;
20861;SDS011;10591;52.532;13.348;2023-05-07T06:37:47;10.25;;;8.60;;
20861;SDS011;10591;52.532;13.348;2023-05-07T06:40:19;9.50;;;8.50;;
20861;SDS011;10591;52.532;13.348;2023-05-07T06:42:51;9.73;;;8.73;;
20861;SDS011;10591;52.532;13.348;2023-05-07T06:45:26;9.80;;;8.80;;
20861;SDS011;10591;52.532;13.348;2023-05-07T06:48:11;11.25;;;8.78;;
20861;SDS011;10591;52.532;13.348;2023-05-07T06:50:49;9.90;;;8.38;;
20861;SDS011;10591;52.532;13.348;2023-05-07T06:53:18;9.20;;;8.00;;
20861;SDS011;10591;52.532;13.348;2023-05-07T06:55:52;9.40;;;8.15;;
20861;SDS011;10591;52.532;13.348;2023-05-07T06:58:28;8.98;;;8.10;;
20861;SDS011;10591;52.532;13.348;2023-05-07T07:01:00;8.45;;;7.65;;
20861;SDS011;10591;52.532;13.348;2023-05-07T07:03:42;10.82;;;8.85;;
20861;SDS011;10591;52.532;13.348;2023-05-07T07:06:13;8.33;;;7.53;;
20861;SDS011;10591;52.532;13.348;2023-05-07T07:08:45;9.55;;;8.15;;
20861;SDS011;10591;52.532;13.348;2023-05-07T07:11:15;8.98;;;7.72;;
20861;SDS011;10591;52.532;13.348;2023-05-07T07:13:46;8.83;;;7.40;;
20861;SDS011;10591;52.532;13.348;2023-05-07T07:16:17;9.03;;;7.65;;
20861;SDS011;10591;52.532;13.348;2023-05-07T07:18:48;7.77;;;6.97;;
20861;SDS011;10591;52.532;13.348;2023-05-07T07:21:19;9.48;;;7.83;;
20861;SDS011;10591;52.532;13.348;2023-05-07T07:23:50;9.03;;;6.97;;
20861;SDS011;10591;52.532;13.348;2023-05-07T07:26:20;8.25;;;7.25;;
20861;SDS011;10591;52.532;13.348;2023-05-07T07:28:51;7.67;;;6.92;;
20861;SDS011;10591;52.532;13.348;2023-05-07T07:31:22;8.20;;;7.37;;
20861;SDS011;10591;52.532;13.348;2023-05-07T07:33:53;8.28;;;6.37;;
20861;SDS011;10591;52.532;13.348;2023-05-07T07:36:25;8.55;;;7.08;;
20861;SDS011;10591;52.532;13.348;2023-05-07T07:38:57;7.03;;;6.33;;
20861;SDS011;10591;52.532;13.348;2023-05-07T07:41:27;9.58;;;6.97;;
20861;SDS011;10591;52.532;13.348;2023-05-07T07:43:58;8.05;;;6.50;;
20861;SDS011;10591;52.532;13.348;2023-05-07T07:46:29;9.55;;;7.10;;
20861;SDS011;10591;52.532;13.348;2023-05-07T07:48:59;8.00;;;5.78;;
20861;SDS011;10591;52.532;13.348;2023-05-07T07:51:30;7.22;;;5.92;;
20861;SDS011;10591;52.532;13.348;2023-05-07T07:54:01;6.65;;;5.97;;
20861;SDS011;10591;52.532;13.348;2023-05-07T07:56:32;6.75;;;5.85;;
20861;SDS011;10591;52.532;13.348;2023-05-07T07:59:05;7.22;;;5.70;;
20861;SDS011;10591;52.532;13.348;2023-05-07T08:01:35;5.58;;;5.00;;
20861;SDS011;10591;52.532;13.348;2023-05-07T08:04:06;7.70;;;6.10;;
20861;SDS011;10591;52.532;13.348;2023-05-07T08:06:37;7.00;;;5.60;;
20861;SDS011;10591;52.532;13.348;2023-05-07T08:09:08;6.78;;;5.42;;
20861;SDS011;10591;52.532;13.348;2023-05-07T08:11:39;5.05;;;4.55;;
20861;SDS011;10591;52.532;13.348;2023-05-07T08:14:11;6.28;;;5.37;;
20861;SDS011;10591;52.532;13.348;2023-05-07T08:16:42;6.12;;;5.12;;
20861;SDS011;10591;52.532;13.348;2023-05-07T08:19:14;6.80;;;5.28;;
20861;SDS011;10591;52.532;13.348;2023-05-07T08:21:45;6.78;;;5.30;;
20861;SDS011;10591;52.532;13.348;2023-05-07T08:24:17;6.42;;;4.85;;
20861;SDS011;10591;52.532;13.348;2023-05-07T08:26:48;6.45;;;4.53;;
20861;SDS011;10591;52.532;13.348;2023-05-07T08:29:21;7.80;;;5.25;;
20861;SDS011;10591;52.532;13.348;2023-05-07T08:31:52;5.17;;;4.37;;
20861;SDS011;10591;52.532;13.348;2023-05-07T08:34:22;7.15;;;5.05;;
20861;SDS011;10591;52.532;13.348;2023-05-07T08:36:53;6.95;;;5.17;;
20861;SDS011;10591;52.532;13.348;2023-05-07T08:39:29;9.70;;;5.78;;
20861;SDS011;10591;52.532;13.348;2023-05-07T08:42:01;5.17;;;4.78;;
20861;SDS011;10591;52.532;13.348;2023-05-07T08:44:36;6.42;;;5.05;;
20861;SDS011;10591;52.532;13.348;2023-05-07T08:47:09;4.50;;;4.12;;
20861;SDS011;10591;52.532;13.348;2023-05-07T08:49:40;7.00;;;4.90;;
20861;SDS011;10591;52.532;13.348;2023-05-07T08:52:12;5.50;;;4.95;;
20861;SDS011;10591;52.532;13.348;2023-05-07T08:54:44;5.00;;;4.50;;
20861;SDS011;10591;52.532;13.348;2023-05-07T08:57:15;5.10;;;4.30;;
20861;SDS011;10591;52.532;13.348;2023-05-07T08:59:46;6.50;;;5.05;;
20861;SDS011;10591;52.532;13.348;2023-05-07T09:02:19;5.20;;;4.70;;
20861;SDS011;10591;52.532;13.348;2023-05-07T09:04:50;6.10;;;5.40;;
20861;SDS011;10591;52.532;13.348;2023-05-07T09:07:24;6.12;;;5.08;;
20861;SDS011;10591;52.532;13.348;2023-05-07T09:09:55;9.55;;;5.90;;
20861;SDS011;10591;52.532;13.348;2023-05-07T09:12:26;9.45;;;5.92;;
20861;SDS011;10591;52.532;13.348;2023-05-07T09:14:57;5.65;;;4.50;;
20861;SDS011;10591;52.532;13.348;2023-05-07T09:17:29;5.17;;;4.33;;
20861;SDS011;10591;52.532;13.348;2023-05-07T09:20:03;5.58;;;4.37;;
20861;SDS011;10591;52.532;13.348;2023-05-07T09:22:36;6.58;;;3.90;;
20861;SDS011;10591;52.532;13.348;2023-05-07T09:25:08;5.12;;;4.33;;
20861;SDS011;10591;52.532;13.348;2023-05-07T09:27:39;6.75;;;4.92;;
20861;SDS011;10591;52.532;13.348;2023-05-07T09:30:13;6.30;;;5.03;;
20861;SDS011;10591;52.532;13.348;2023-05-07T09:32:43;6.37;;;4.85;;
20861;SDS011;10591;52.532;13.348;2023-05-07T09:35:16;7.17;;;4.70;;
20861;SDS011;10591;52.532;13.348;2023-05-07T09:37:47;6.17;;;5.35;;
20861;SDS011;10591;52.532;13.348;2023-05-07T09:40:28;7.12;;;5.30;;
20861;SDS011;10591;52.532;13.348;2023-05-07T09:43:11;7.50;;;5.20;;
20861;SDS011;10591;52.532;13.348;2023-05-07T09:45:47;6.45;;;4.90;;
20861;SDS011;10591;52.532;13.348;2023-05-07T09:48:20;6.72;;;4.40;;
20861;SDS011;10591;52.532;13.348;2023-05-07T09:50:55;5.75;;;4.83;;
20861;SDS011;10591;52.532;13.348;2023-05-07T09:53:28;8.83;;;5.50;;
20861;SDS011;10591;52.532;13.348;2023-05-07T09:56:02;5.45;;;4.95;;
20861;SDS011;10591;52.532;13.348;2023-05-07T09:58:36;6.12;;;4.45;;
20861;SDS011;10591;52.532;13.348;2023-05-07T10:01:10;6.03;;;4.62;;
20861;SDS011;10591;52.532;13.348;2023-05-07T10:03:41;5.47;;;4.45;;
20861;SDS011;10591;52.532;13.348;2023-05-07T10:06:20;5.62;;;4.00;;
20861;SDS011;10591;52.532;13.348;2023-05-07T10:08:51;5.60;;;4.20;;
20861;SDS011;10591;52.532;13.348;2023-05-07T10:11:25;5.33;;;4.28;;
20861;SDS011;10591;52.532;13.348;2023-05-07T10:13:58;6.03;;;4.10;;
20861;SDS011;10591;52.532;13.348;2023-05-07T10:16:33;5.28;;;4.47;;
20861;SDS011;10591;52.532;13.348;2023-05-07T10:19:07;5.97;;;3.72;;
20861;SDS011;10591;52.532;13.348;2023-05-07T10:21:48;7.28;;;4.30;;
20861;SDS011;10591;52.532;13.348;2023-05-07T10:24:20;5.30;;;3.92;;
20861;SDS011;10591;52.532;13.348;2023-05-07T10:26:53;3.85;;;3.45;;
20861;SDS011;10591;52.532;13.348;2023-05-07T10:32:12;8.80;;;3.98;;
20861;SDS011;10591;52.532;13.348;2023-05-07T10:34:47;4.75;;;3.33;;
20861;SDS011;10591;52.532;13.348;2023-05-07T10:37:21;4.30;;;3.20;;
20861;SDS011;10591;52.532;13.348;2023-05-07T10:39:53;4.97;;;3.40;;
20861;SDS011;10591;52.532;13.348;2023-05-07T10:42:28;3.90;;;3.50;;
20861;SDS011;10591;52.532;13.348;2023-05-07T10:45:11;7.15;;;3.80;;
20861;SDS011;10591;52.532;13.348;2023-05-07T10:50:42;6.97;;;4.03;;
20861;SDS011;10591;52.532;13.348;2023-05-07T10:56:23;5.72;;;4.00;;
20861;SDS011;10591;52.532;13.348;2023-05-07T10:58:45;6.45;;;3.80;;
20861;SDS011;10591;52.532;13.348;2023-05-07T11:01:19;10.23;;;4.47;;
20861;SDS011;10591;52.532;13.348;2023-05-07T11:15:12;4.53;;;3.52;;
20861;SDS011;10591;52.532;13.348;2023-05-07T11:17:53;7.58;;;4.08;;
20861;SDS011;10591;52.532;13.348;2023-05-07T11:21:14;5.62;;;3.65;;
20861;SDS011;10591;52.532;13.348;2023-05-07T11:26:09;7.30;;;4.17;;
20861;SDS011;10591;52.532;13.348;2023-05-07T11:28:42;6.90;;;4.35;;
20861;SDS011;10591;52.532;13.348;2023-05-07T11:31:13;4.08;;;3.62;;
20861;SDS011;10591;52.532;13.348;2023-05-07T11:33:47;7.62;;;4.37;;
20861;SDS011;10591;52.532;13.348;2023-05-07T11:36:21;9.20;;;4.25;;
20861;SDS011;10591;52.532;13.348;2023-05-07T11:38:54;9.00;;;5.03;;
20861;SDS011;10591;52.532;13.348;2023-05-07T11:41:34;6.50;;;4.42;;
20861;SDS011;10591;52.532;13.348;2023-05-07T11:44:20;6.92;;;3.67;;
20861;SDS011;10591;52.532;13.348;2023-05-07T11:46:45;5.95;;;3.83;;
20861;SDS011;10591;52.532;13.348;2023-05-07T11:49:24;6.33;;;3.75;;
20861;SDS011;10591;52.532;13.348;2023-05-07T11:51:54;7.50;;;4.35;;
20861;SDS011;10591;52.532;13.348;2023-05-07T11:54:26;6.78;;;4.08;;
20861;SDS011;10591;52.532;13.348;2023-05-07T11:56:58;5.53;;;3.90;;
20861;SDS011;10591;52.532;13.348;2023-05-07T11:59:29;10.70;;;4.30;;
20861;SDS011;10591;52.532;13.348;2023-05-07T12:02:00;5.95;;;3.70;;
20861;SDS011;10591;52.532;13.348;2023-05-07T12:04:30;7.20;;;4.00;;
20861;SDS011;10591;52.532;13.348;2023-05-07T12:07:08;12.33;;;5.03;;
20861;SDS011;10591;52.532;13.348;2023-05-07T12:09:34;7.30;;;4.20;;
20861;SDS011;10591;52.532;13.348;2023-05-07T12:12:06;6.90;;;3.90;;
20861;SDS011;10591;52.532;13.348;2023-05-07T12:14:43;6.60;;;3.80;;
20861;SDS011;10591;52.532;13.348;2023-05-07T12:17:12;6.78;;;3.62;;
20861;SDS011;10591;52.532;13.348;2023-05-07T12:19:44;9.50;;;4.60;;
20861;SDS011;10591;52.532;13.348;2023-05-07T12:22:19;4.12;;;3.35;;
20861;SDS011;10591;52.532;13.348;2023-05-07T12:24:59;6.95;;;4.03;;
20861;SDS011;10591;52.532;13.348;2023-05-07T12:27:28;8.15;;;4.12;;
20861;SDS011;10591;52.532;13.348;2023-05-07T12:30:01;9.78;;;4.30;;
20861;SDS011;10591;52.532;13.348;2023-05-07T12:32:32;5.62;;;3.30;;
20861;SDS011;10591;52.532;13.348;2023-05-07T12:35:06;9.85;;;4.12;;
20861;SDS011;10591;52.532;13.348;2023-05-07T12:37:39;9.70;;;4.40;;
20861;SDS011;10591;52.532;13.348;2023-05-07T12:40:11;9.93;;;4.47;;
20861;SDS011;10591;52.532;13.348;2023-05-07T12:42:46;6.70;;;3.85;;
20861;SDS011;10591;52.532;13.348;2023-05-07T12:45:18;7.12;;;4.03;;
20861;SDS011;10591;52.532;13.348;2023-05-07T12:47:49;6.50;;;3.40;;
20861;SDS011;10591;52.532;13.348;2023-05-07T12:50:22;8.03;;;3.92;;
20861;SDS011;10591;52.532;13.348;2023-05-07T12:52:53;5.80;;;3.47;;
20861;SDS011;10591;52.532;13.348;2023-05-07T12:55:25;6.53;;;3.45;;
20861;SDS011;10591;52.532;13.348;2023-05-07T12:58:00;5.65;;;3.58;;
20861;SDS011;10591;52.532;13.348;2023-05-07T13:00:36;4.65;;;3.42;;
20861;SDS011;10591;52.532;13.348;2023-05-07T13:03:09;3.75;;;3.20;;
20861;SDS011;10591;52.532;13.348;2023-05-07T13:05:41;5.20;;;3.40;;
20861;SDS011;10591;52.532;13.348;2023-05-07T13:08:12;4.62;;;3.17;;
20861;SDS011;10591;52.532;13.348;2023-05-07T13:10:48;5.28;;;3.27;;
20861;SDS011;10591;52.532;13.348;2023-05-07T13:13:20;7.28;;;4.10;;
20861;SDS011;10591;52.532;13.348;2023-05-07T13:15:52;7.90;;;3.85;;
20861;SDS011;10591;52.532;13.348;2023-05-07T13:18:26;7.10;;;3.45;;
20861;SDS011;10591;52.532;13.348;2023-05-07T13:20:58;6.47;;;3.50;;
20861;SDS011;10591;52.532;13.348;2023-05-07T13:23:33;5.50;;;3.35;;
20861;SDS011;10591;52.532;13.348;2023-05-07T13:26:08;11.95;;;4.58;;
20861;SDS011;10591;52.532;13.348;2023-05-07T13:28:41;6.60;;;3.52;;
20861;SDS011;10591;52.532;13.348;2023-05-07T13:31:12;5.10;;;3.00;;
20861;SDS011;10591;52.532;13.348;2023-05-07T13:33:46;6.17;;;3.40;;
20861;SDS011;10591;52.532;13.348;2023-05-07T13:36:17;8.43;;;5.25;;
20861;SDS011;10591;52.532;13.348;2023-05-07T13:38:53;5.28;;;3.30;;
20861;SDS011;10591;52.532;13.348;2023-05-07T13:41:32;6.70;;;3.65;;
20861;SDS011;10591;52.532;13.348;2023-05-07T13:44:09;7.28;;;3.85;;
20861;SDS011;10591;52.532;13.348;2023-05-07T13:46:40;8.38;;;4.05;;
20861;SDS011;10591;52.532;13.348;2023-05-07T13:49:13;9.65;;;4.17;;
20861;SDS011;10591;52.532;13.348;2023-05-07T13:51:47;14.55;;;5.22;;
20861;SDS011;10591;52.532;13.348;2023-05-07T13:54:17;11.57;;;4.22;;
20861;SDS011;10591;52.532;13.348;2023-05-07T13:56:50;8.60;;;3.70;;
20861;SDS011;10591;52.532;13.348;2023-05-07T13:59:20;5.50;;;3.35;;
20861;SDS011;10591;52.532;13.348;2023-05-07T14:01:51;5.25;;;3.42;;
20861;SDS011;10591;52.532;13.348;2023-05-07T14:04:21;5.03;;;3.37;;
20861;SDS011;10591;52.532;13.348;2023-05-07T14:06:53;5.70;;;3.60;;
20861;SDS011;10591;52.532;13.348;2023-05-07T14:09:25;6.20;;;3.22;;
20861;SDS011;10591;52.532;13.348;2023-05-07T14:11:55;9.20;;;4.33;;
20861;SDS011;10591;52.532;13.348;2023-05-07T14:14:26;8.15;;;3.77;;
20861;SDS011;10591;52.532;13.348;2023-05-07T14:16:57;11.43;;;4.42;;
20861;SDS011;10591;52.532;13.348;2023-05-07T14:19:28;9.88;;;3.60;;
20861;SDS011;10591;52.532;13.348;2023-05-07T14:22:00;17.62;;;5.58;;
20861;SDS011;10591;52.532;13.348;2023-05-07T14:24:31;13.85;;;5.22;;
20861;SDS011;10591;52.532;13.348;2023-05-07T14:27:03;12.95;;;4.67;;
20861;SDS011;10591;52.532;13.348;2023-05-07T14:29:35;9.60;;;4.28;;
20861;SDS011;10591;52.532;13.348;2023-05-07T14:32:05;5.30;;;3.30;;
20861;SDS011;10591;52.532;13.348;2023-05-07T14:34:37;5.50;;;3.62;;
20861;SDS011;10591;52.532;13.348;2023-05-07T14:37:07;4.80;;;2.98;;
20861;SDS011;10591;52.532;13.348;2023-05-07T14:39:39;5.15;;;3.22;;
20861;SDS011;10591;52.532;13.348;2023-05-07T14:42:10;5.70;;;3.10;;
20861;SDS011;10591;52.532;13.348;2023-05-07T14:44:41;3.87;;;3.00;;
20861;SDS011;10591;52.532;13.348;2023-05-07T14:47:14;6.25;;;3.52;;
20861;SDS011;10591;52.532;13.348;2023-05-07T14:49:47;6.75;;;3.45;;
20861;SDS011;10591;52.532;13.348;2023-05-07T14:52:18;7.00;;;4.00;;
20861;SDS011;10591;52.532;13.348;2023-05-07T14:54:49;7.10;;;3.55;;
20861;SDS011;10591;52.532;13.348;2023-05-07T14:57:21;13.45;;;5.87;;
20861;SDS011;10591;52.532;13.348;2023-05-07T14:59:52;11.90;;;7.30;;
20861;SDS011;10591;52.532;13.348;2023-05-07T15:02:23;4.08;;;3.17;;
20861;SDS011;10591;52.532;13.348;2023-05-07T15:04:54;9.55;;;4.22;;
20861;SDS011;10591;52.532;13.348;2023-05-07T15:07:25;4.83;;;3.10;;
20861;SDS011;10591;52.532;13.348;2023-05-07T15:09:59;5.17;;;3.35;;
20861;SDS011;10591;52.532;13.348;2023-05-07T15:12:29;3.77;;;3.02;;
20861;SDS011;10591;52.532;13.348;2023-05-07T15:15:02;3.08;;;2.67;;
20861;SDS011;10591;52.532;13.348;2023-05-07T15:17:35;6.67;;;2.95;;
20861;SDS011;10591;52.532;13.348;2023-05-07T15:20:07;6.97;;;3.62;;
20861;SDS011;10591;52.532;13.348;2023-05-07T15:22:39;4.33;;;3.05;;
20861;SDS011;10591;52.532;13.348;2023-05-07T15:25:11;6.87;;;3.50;;